»·PEaware :: RA34691 ZSPD-RKSI

RA34691 :: ZSPD-RKSI

FLIGHT INFORMATION

Flight Status: Arrived
Operator: Privately registered:
Russian Federation
More flights under this callsign
Pilot: Sergei F. (8485)
Aircraft: Unknown
(E50P)
More flights by this aircraft type
Origin: ZSPD Pudong
China
Destination: RKSI Incheon Intl
Republic of Korea
More flights between these airports :: More routes between these airports
Route: ZSPD RKSI
File this flight plan on PilotEdge
Remarks:
Altitude:
(Current/Filed)
1,900ft
Speed:
(Current/Filed)
400kts
Departed: 15-Apr-16 12:47 AM
Arrived: 15-Apr-16 02:40 AM
Distance/Time
Traveled:
443nm/1:52
Distance/Time
To Go:
Arrived

Flight Plot

Page will automatically refresh every two minutes.


Map Options




Map Legend


Flown Route
Filed Route
Departure Airport
Arrival Airport
Navaid (VOR, NDB)
Fix

Horizontal Profiles

Position Reports

Time Latitude Longitude Heading Altitude Ground
Speed
15-Apr-16 00:26 31.143162 121.800021 68 15ft 0kts
15-Apr-16 00:27 31.143162 121.800021 68 15ft 0kts
15-Apr-16 00:28 31.143162 121.800021 68 15ft 0kts
15-Apr-16 00:29 31.143186 121.800094 69 15ft 0kts
15-Apr-16 00:30 31.142378 121.798694 237 15ft 13kts
15-Apr-16 00:31 31.139172 121.799738 69 15ft 12kts
15-Apr-16 00:32 31.140295 121.803525 72 15ft 12kts
15-Apr-16 00:33 31.141466 121.807484 71 15ft 13kts
15-Apr-16 00:34 31.143324 121.810761 342 15ft 14kts
15-Apr-16 00:35 31.147550 121.809136 341 15ft 17kts
15-Apr-16 00:36 31.152647 121.807235 351 15ft 15kts
15-Apr-16 00:37 31.152827 121.809279 162 15ft 1kts
15-Apr-16 00:38 31.140369 121.814011 158 56ft 119kts
15-Apr-16 00:39 31.122626 121.842342 39 1621ft 185kts
15-Apr-16 00:40 31.173662 121.828418 337 3172ft 201kts
15-Apr-16 00:41 31.228049 121.799992 337 4158ft 227kts
15-Apr-16 00:42 31.288543 121.768178 337 5127ft 245kts
15-Apr-16 00:43 31.349614 121.729131 325 6084ft 254kts
15-Apr-16 00:44 31.410800 121.687232 338 7040ft 257kts
15-Apr-16 00:45 31.475405 121.661020 345 8472ft 233kts
15-Apr-16 00:46 31.537116 121.636877 344 9697ft 243kts
15-Apr-16 00:47 31.606015 121.612441 344 10938ft 271kts
15-Apr-16 00:48 31.681360 121.588645 344 12154ft 288kts
15-Apr-16 00:49 31.760546 121.565509 345 13363ft 296kts
15-Apr-16 00:50 31.841224 121.542773 345 14567ft 298kts
15-Apr-16 00:51 31.921707 121.520937 345 15763ft 295kts
15-Apr-16 00:52 32.001598 121.500146 344 16960ft 290kts
15-Apr-16 00:53 32.078798 121.476235 341 18156ft 282kts
15-Apr-16 00:54 32.154321 121.451497 341 19062ft 283kts
15-Apr-16 00:55 32.231600 121.426364 341 19666ft 292kts
15-Apr-16 00:56 32.297625 121.405004 341 20169ft 296kts
15-Apr-16 00:57 32.377356 121.379343 341 20768ft 298kts
15-Apr-16 00:58 32.457876 121.353574 341 21370ft 298kts
15-Apr-16 00:59 32.538409 121.327905 341 21972ft 296kts
15-Apr-16 01:00 32.618351 121.302578 341 22572ft 293kts
15-Apr-16 01:01 32.696870 121.277754 341 23169ft 289kts
15-Apr-16 01:02 32.774592 121.253251 341 23766ft 285kts
15-Apr-16 01:03 32.850352 121.229527 341 24357ft 280kts
15-Apr-16 01:04 32.925324 121.206384 341 24919ft 276kts
15-Apr-16 01:05 33.001539 121.183075 341 24987ft 289kts
15-Apr-16 01:06 33.081407 121.157982 341 24987ft 300kts
15-Apr-16 01:07 33.163162 121.131804 341 24986ft 308kts
15-Apr-16 01:08 33.246571 121.104687 341 24987ft 313kts
15-Apr-16 01:09 33.333567 121.085246 351 24980ft 321kts
15-Apr-16 01:10 33.423176 121.080065 353 24980ft 324kts
15-Apr-16 01:11 33.513730 121.075613 354 24969ft 326kts
15-Apr-16 01:12 33.604633 121.070828 354 24970ft 326kts
15-Apr-16 01:13 33.695475 121.065706 353 24971ft 327kts
15-Apr-16 01:14 33.787007 121.060416 353 24973ft 327kts
15-Apr-16 01:15 33.877903 121.055112 353 24975ft 327kts
15-Apr-16 01:16 33.968940 121.049738 353 24978ft 328kts
15-Apr-16 01:17 34.060440 121.045604 357 24981ft 329kts
15-Apr-16 01:18 34.152627 121.049308 358 24983ft 329kts
15-Apr-16 01:19 34.244194 121.053838 358 24985ft 330kts
15-Apr-16 01:20 34.336172 121.058391 358 24988ft 330kts
15-Apr-16 01:21 34.428258 121.062921 358 24991ft 330kts
15-Apr-16 01:22 34.520426 121.067695 358 24993ft 331kts
15-Apr-16 01:23 34.612407 121.072491 358 24996ft 331kts
15-Apr-16 01:24 34.704468 121.077358 358 24999ft 332kts
15-Apr-16 01:25 34.797309 121.082460 358 25001ft 332kts
15-Apr-16 01:26 34.889659 121.087515 358 25004ft 333kts
15-Apr-16 01:27 34.982978 121.092855 358 25006ft 332kts
15-Apr-16 01:28 35.075768 121.098191 358 25008ft 334kts
15-Apr-16 01:29 35.168470 121.110517 12 25011ft 340kts
15-Apr-16 01:30 35.258797 121.149183 16 25012ft 343kts
15-Apr-16 01:31 35.346561 121.196313 26 25013ft 347kts
15-Apr-16 01:32 35.429204 121.258485 28 25014ft 348kts
15-Apr-16 01:33 35.511633 121.321971 28 25014ft 349kts
15-Apr-16 01:34 35.593756 121.385392 28 25020ft 349kts
15-Apr-16 01:35 35.676580 121.449385 28 25020ft 350kts
15-Apr-16 01:36 35.759181 121.513427 28 25020ft 352kts
15-Apr-16 01:37 35.842270 121.577843 28 25019ft 352kts
15-Apr-16 01:38 35.925194 121.642170 28 25031ft 350kts
15-Apr-16 01:39 36.007748 121.706518 28 25041ft 350kts
15-Apr-16 01:40 36.090007 121.770668 28 25040ft 350kts
15-Apr-16 01:41 36.172569 121.835040 28 25035ft 350kts
15-Apr-16 01:42 36.255452 121.899647 27 25036ft 350kts
15-Apr-16 01:43 36.338102 121.964101 27 25036ft 350kts
15-Apr-16 01:44 36.420496 122.029314 27 25036ft 351kts
15-Apr-16 01:45 36.500564 122.100685 33 25038ft 356kts
15-Apr-16 01:46 36.576786 122.179794 36 25040ft 359kts
15-Apr-16 01:47 36.649286 122.266429 38 25041ft 361kts
15-Apr-16 01:48 36.709394 122.339471 38 25042ft 361kts
15-Apr-16 01:49 36.781280 122.426848 38 25046ft 361kts
15-Apr-16 01:50 36.865509 122.529211 38 25054ft 361kts
15-Apr-16 01:51 36.929494 122.626401 62 25058ft 372kts
15-Apr-16 01:52 36.960693 122.727503 67 25059ft 373kts
15-Apr-16 01:53 36.997136 122.855924 67 25125ft 371kts
15-Apr-16 01:54 37.028102 122.969312 67 26051ft 290kts
15-Apr-16 01:55 37.050307 123.058610 67 27013ft 278kts
15-Apr-16 01:56 37.075434 123.159754 67 27718ft 333kts
15-Apr-16 01:57 37.106057 123.279509 67 28257ft 387kts
15-Apr-16 01:58 37.141018 123.414457 67 28778ft 422kts
15-Apr-16 01:59 37.178398 123.558334 67 29288ft 441kts
15-Apr-16 02:00 37.216672 123.706368 67 29792ft 451kts
15-Apr-16 02:01 37.255430 123.857375 67 30099ft 457kts
15-Apr-16 02:02 37.294803 124.011345 67 30093ft 458kts
15-Apr-16 02:03 37.333859 124.165161 67 29244ft 461kts
15-Apr-16 02:04 37.373124 124.318188 67 27584ft 452kts
15-Apr-16 02:05 37.411981 124.466110 67 25688ft 441kts
15-Apr-16 02:06 37.446868 124.612173 74 23792ft 433kts
15-Apr-16 02:07 37.461774 124.761718 85 21899ft 423kts
15-Apr-16 02:08 37.469097 124.910900 81 20357ft 407kts
15-Apr-16 02:09 37.484686 125.050218 79 18953ft 392kts
15-Apr-16 02:10 37.501826 125.182162 77 17381ft 370kts
15-Apr-16 02:11 37.519670 125.306112 76 15476ft 349kts
15-Apr-16 02:12 37.536513 125.421587 76 13574ft 321kts
15-Apr-16 02:13 37.552110 125.527882 76 11944ft 297kts
15-Apr-16 02:14 37.567324 125.628505 77 10352ft 287kts
15-Apr-16 02:15 37.583211 125.726665 77 8848ft 283kts
15-Apr-16 02:16 37.599291 125.819768 76 7397ft 253kts
15-Apr-16 02:17 37.611910 125.889281 76 6220ft 234kts
15-Apr-16 02:18 37.627796 125.970789 77 4729ft 218kts
15-Apr-16 02:19 37.643653 126.042551 76 3457ft 202kts
15-Apr-16 02:20 37.659003 126.104049 76 3128ft 170kts
15-Apr-16 02:21 37.656488 126.157013 112 3362ft 151kts
15-Apr-16 02:22 37.642059 126.206471 126 2973ft 143kts
15-Apr-16 02:23 37.621305 126.243625 133 2688ft 118kts
15-Apr-16 02:24 37.602569 126.275544 134 2546ft 112kts
15-Apr-16 02:25 37.583070 126.306005 135 2088ft 107kts
15-Apr-16 02:26 37.565028 126.336123 128 1632ft 108kts
15-Apr-16 02:27 37.545891 126.363789 138 1254ft 103kts
15-Apr-16 02:28 37.525479 126.389388 137 876ft 106kts
15-Apr-16 02:29 37.503964 126.416515 144 418ft 104kts
15-Apr-16 02:30 37.481002 126.437009 146 58ft 99kts
15-Apr-16 02:31 37.464207 126.451941 144 28ft 39kts
15-Apr-16 02:32 37.459089 126.454275 173 28ft 5kts
15-Apr-16 02:33 37.457955 126.454842 146 28ft 14kts
15-Apr-16 02:34 37.454393 126.457996 150 28ft 12kts
15-Apr-16 02:35 37.452307 126.455080 252 28ft 11kts
15-Apr-16 02:36 37.451830 126.452894 275 28ft 2kts
15-Apr-16 02:37 37.451945 126.452639 329 28ft 0kts
15-Apr-16 02:38 37.451945 126.452639 329 28ft 0kts
15-Apr-16 02:39 37.451945 126.452639 329 28ft 0kts

Navigation Log

Ident Type
1. ZSPD Airport
2. RKSI Airport